Time;durP1;ratioP1;P1;durP2;ratioP2;P2;SDS_P1;SDS_P2;PMS_P1;PMS_P2;Temp;Humidity;BMP_temperature;BMP_pressure;BME280_temperature;BME280_humidity;BME280_pressure;Samples;Min_cycle;Max_cycle;Signal;HPM_P1;HPM_P2
2023/01/03 00:00:07;;;;;;;20.80;9.75;;;;;;;;;;5091461;28;20062;-63
2023/01/03 00:02:33;;;;;;;16.35;9.68;;;;;;;;;;5091116;28;20471;-62
2023/01/03 00:04:59;;;;;;;16.30;9.25;;;;;;;;;;5090891;28;20071;-63
2023/01/03 00:07:34;;;;;;;20.25;9.45;;;;;;;;;;5090474;28;20074;-63
2023/01/03 00:10:00;;;;;;;19.60;9.55;;;;;;;;;;5091668;28;20155;-63
2023/01/03 00:12:27;;;;;;;18.95;9.05;;;;;;;;;;5091401;28;20044;-62
2023/01/03 00:14:53;;;;;;;17.83;9.57;;;;;;;;;;5091306;28;20086;-63
2023/01/03 00:17:19;;;;;;;19.77;9.85;;;;;;;;;;5091076;28;20036;-63
2023/01/03 00:19:46;;;;;;;20.10;10.35;;;;;;;;;;5091193;28;20110;-63
2023/01/03 00:22:13;;;;;;;22.20;10.18;;;;;;;;;;5090393;28;20096;-63
2023/01/03 00:24:39;;;;;;;16.40;9.60;;;;;;;;;;5091276;28;20047;-62
2023/01/03 00:27:05;;;;;;;17.52;10.05;;;;;;;;;;5091412;28;20182;-62
2023/01/03 00:29:31;;;;;;;16.80;9.57;;;;;;;;;;5090837;28;20165;-62
2023/01/03 00:31:57;;;;;;;19.33;10.02;;;;;;;;;;5090106;28;20077;-63
2023/01/03 00:34:23;;;;;;;19.20;10.60;;;;;;;;;;5089627;28;20054;-62
2023/01/03 00:36:49;;;;;;;22.92;10.48;;;;;;;;;;5091197;28;20474;-63
2023/01/03 00:39:15;;;;;;;20.27;10.68;;;;;;;;;;5090618;28;20047;-62
2023/01/03 00:41:42;;;;;;;20.60;10.90;;;;;;;;;;5091165;28;20099;-62
2023/01/03 00:44:08;;;;;;;22.02;10.20;;;;;;;;;;5089717;28;20036;-62
2023/01/03 00:46:34;;;;;;;18.80;9.98;;;;;;;;;;5090549;28;20088;-62
2023/01/03 00:49:01;;;;;;;21.70;11.32;;;;;;;;;;5090659;28;20040;-63
2023/01/03 00:51:28;;;;;;;22.25;10.60;;;;;;;;;;5090878;28;20506;-64
2023/01/03 00:53:55;;;;;;;19.05;10.82;;;;;;;;;;5093938;28;20185;-62
2023/01/03 00:56:22;;;;;;;20.50;11.18;;;;;;;;;;5092708;28;20076;-63
2023/01/03 00:58:48;;;;;;;21.95;11.07;;;;;;;;;;5094952;28;20040;-63
2023/01/03 01:01:16;;;;;;;17.27;11.00;;;;;;;;;;5094123;28;20049;-63
2023/01/03 01:03:44;;;;;;;19.73;9.60;;;;;;;;;;5093848;28;20624;-62
2023/01/03 01:06:11;;;;;;;17.55;10.73;;;;;;;;;;5095084;28;20032;-63
2023/01/03 01:08:37;;;;;;;19.92;10.75;;;;;;;;;;5094849;28;20501;-63
2023/01/03 01:11:03;;;;;;;20.80;10.45;;;;;;;;;;5093624;28;20040;-63
2023/01/03 01:13:31;;;;;;;18.95;11.07;;;;;;;;;;5092715;28;20040;-63
2023/01/03 01:16:11;;;;;;;20.80;10.73;;;;;;;;;;5093745;28;20073;-62
2023/01/03 01:18:37;;;;;;;14.95;10.13;;;;;;;;;;5095184;28;20051;-63
2023/01/03 01:21:05;;;;;;;20.73;10.90;;;;;;;;;;5094054;28;20040;-62
2023/01/03 01:23:31;;;;;;;20.23;10.63;;;;;;;;;;5094453;28;20514;-63
2023/01/03 01:26:00;;;;;;;17.27;10.35;;;;;;;;;;5095177;28;20180;-63
2023/01/03 01:28:26;;;;;;;19.40;10.48;;;;;;;;;;5093556;28;20040;-63
2023/01/03 01:30:52;;;;;;;19.48;11.00;;;;;;;;;;5094825;28;20168;-62
2023/01/03 01:33:18;;;;;;;19.00;11.13;;;;;;;;;;5094073;28;20383;-62
2023/01/03 01:35:43;;;;;;;19.70;10.80;;;;;;;;;;5094939;28;20083;-62
2023/01/03 01:38:10;;;;;;;19.23;10.52;;;;;;;;;;5094076;28;20490;-62
2023/01/03 01:40:36;;;;;;;22.27;11.43;;;;;;;;;;5094438;28;20040;-63
2023/01/03 01:46:03;;;;;;;20.60;10.30;;;;;;;;;;5093870;28;20044;-63
2023/01/03 01:48:29;;;;;;;16.60;9.68;;;;;;;;;;5092708;28;20089;-62
2023/01/03 01:50:56;;;;;;;18.60;11.15;;;;;;;;;;5113718;22;20777;-63
2023/01/03 01:53:28;;;;;;;19.02;10.63;;;;;;;;;;5082716;28;20127;-63
2023/01/03 01:55:56;;;;;;;20.67;10.48;;;;;;;;;;5087240;28;20047;-63
2023/01/03 01:58:25;;;;;;;19.15;10.27;;;;;;;;;;5092437;28;20429;-63
2023/01/03 02:00:51;;;;;;;25.23;11.02;;;;;;;;;;5082294;28;20489;-63
2023/01/03 02:03:17;;;;;;;18.08;10.15;;;;;;;;;;5078697;28;20040;-63
2023/01/03 02:05:45;;;;;;;24.55;10.52;;;;;;;;;;5071445;28;20040;-63
2023/01/03 02:08:11;;;;;;;17.13;9.93;;;;;;;;;;5066401;28;20065;-63
2023/01/03 02:10:43;;;;;;;18.50;10.02;;;;;;;;;;5062253;28;20055;-63
2023/01/03 02:13:16;;;;;;;19.65;10.18;;;;;;;;;;5071540;28;20111;-63
2023/01/03 02:15:50;;;;;;;19.40;10.73;;;;;;;;;;5065445;28;20124;-63
2023/01/03 02:18:25;;;;;;;22.33;10.73;;;;;;;;;;5071696;28;20033;-63
2023/01/03 02:20:55;;;;;;;23.33;11.90;;;;;;;;;;5072333;28;20033;-63
2023/01/03 02:23:28;;;;;;;20.08;10.93;;;;;;;;;;5065745;28;20490;-63
2023/01/03 02:26:03;;;;;;;21.02;11.45;;;;;;;;;;5067787;28;20035;-63
2023/01/03 02:28:35;;;;;;;23.27;11.25;;;;;;;;;;5063017;28;20037;-64
2023/01/03 02:31:04;;;;;;;24.20;11.63;;;;;;;;;;5064090;28;20087;-63
2023/01/03 02:33:30;;;;;;;20.95;11.57;;;;;;;;;;5071974;28;20048;-63
2023/01/03 02:36:03;;;;;;;20.02;12.23;;;;;;;;;;5068261;28;20052;-63
2023/01/03 02:38:36;;;;;;;21.50;11.95;;;;;;;;;;5062425;28;20044;-63
2023/01/03 02:41:05;;;;;;;27.17;13.45;;;;;;;;;;5064916;28;20124;-63
2023/01/03 02:44:03;;;;;;;22.08;12.45;;;;;;;;;;5071010;28;20044;-63
2023/01/03 02:46:48;;;;;;;23.00;12.35;;;;;;;;;;5040762;28;20044;-63
2023/01/03 02:49:19;;;;;;;27.92;13.18;;;;;;;;;;5063888;28;20510;-63
2023/01/03 02:51:49;;;;;;;26.58;13.00;;;;;;;;;;5065522;28;20040;-63
2023/01/03 02:54:19;;;;;;;24.48;13.63;;;;;;;;;;5070086;28;20049;-63
2023/01/03 02:56:49;;;;;;;27.92;13.23;;;;;;;;;;5068299;28;20475;-63
2023/01/03 02:59:19;;;;;;;29.55;13.60;;;;;;;;;;5060347;28;20048;-63
2023/01/03 03:01:49;;;;;;;24.75;12.90;;;;;;;;;;5064930;28;20072;-63
2023/01/03 03:04:15;;;;;;;27.77;14.77;;;;;;;;;;5061916;28;20115;-63
2023/01/03 03:06:57;;;;;;;28.65;14.20;;;;;;;;;;5065798;28;20485;-63
2023/01/03 03:09:24;;;;;;;29.10;13.98;;;;;;;;;;5060476;28;20040;-63
2023/01/03 03:14:43;;;;;;;32.80;15.15;;;;;;;;;;5063674;28;20044;-63
2023/01/03 03:17:12;;;;;;;28.65;16.02;;;;;;;;;;5066656;28;20448;-63
2023/01/03 03:25:31;;;;;;;29.05;15.52;;;;;;;;;;5066183;28;20146;-63
2023/01/03 03:30:52;;;;;;;26.60;14.80;;;;;;;;;;5070649;28;20467;-63
2023/01/03 03:33:19;;;;;;;33.28;15.80;;;;;;;;;;5068943;28;20102;-63
2023/01/03 03:35:54;;;;;;;32.20;15.98;;;;;;;;;;5059322;28;20094;-63
2023/01/03 03:38:24;;;;;;;28.48;15.93;;;;;;;;;;5062326;28;20048;-63
2023/01/03 03:44:59;;;;;;;30.75;16.60;;;;;;;;;;5067277;28;20090;-63
2023/01/03 03:46:56;;;;;;;28.08;15.02;;;;;;;;;;5064307;28;20494;-63
2023/01/03 03:49:39;;;;;;;33.03;16.67;;;;;;;;;;5065454;28;20044;-63
2023/01/03 03:52:07;;;;;;;35.45;17.42;;;;;;;;;;5066625;28;20047;-63
2023/01/03 03:54:35;;;;;;;33.20;17.20;;;;;;;;;;5069455;28;20046;-63
2023/01/03 03:57:04;;;;;;;29.83;16.02;;;;;;;;;;5067131;28;20045;-63
2023/01/03 03:59:31;;;;;;;31.88;16.10;;;;;;;;;;5059985;28;20045;-63
2023/01/03 04:01:59;;;;;;;33.05;17.23;;;;;;;;;;5058608;28;20041;-62
2023/01/03 04:04:28;;;;;;;32.95;17.02;;;;;;;;;;5062278;28;20033;-62
2023/01/03 04:06:54;;;;;;;32.72;16.30;;;;;;;;;;5057299;28;20076;-63
2023/01/03 04:09:20;;;;;;;29.77;16.73;;;;;;;;;;5065251;28;20544;-63
2023/01/03 04:11:46;;;;;;;34.60;16.48;;;;;;;;;;5061853;28;20045;-63
2023/01/03 04:14:12;;;;;;;34.05;17.38;;;;;;;;;;5064063;28;20040;-63
2023/01/03 04:16:39;;;;;;;33.90;16.90;;;;;;;;;;5061225;28;20040;-63
2023/01/03 04:19:06;;;;;;;33.28;17.00;;;;;;;;;;5066377;28;20102;-62
2023/01/03 04:21:32;;;;;;;33.13;16.35;;;;;;;;;;5054934;28;20494;-63
2023/01/03 04:23:58;;;;;;;30.63;16.45;;;;;;;;;;5050912;28;20494;-63
2023/01/03 04:26:24;;;;;;;32.13;16.30;;;;;;;;;;5062777;28;20036;-63
2023/01/03 04:28:50;;;;;;;30.23;16.83;;;;;;;;;;5068546;28;20473;-63
2023/01/03 04:31:16;;;;;;;31.33;16.92;;;;;;;;;;5063677;28;20132;-63
2023/01/03 04:33:42;;;;;;;35.42;19.10;;;;;;;;;;5067339;28;20048;-64
2023/01/03 04:36:08;;;;;;;32.38;19.15;;;;;;;;;;5051179;28;20048;-63
2023/01/03 04:38:34;;;;;;;37.13;19.33;;;;;;;;;;5053285;28;20055;-63
2023/01/03 04:41:04;;;;;;;37.80;19.35;;;;;;;;;;5066022;28;20040;-63
2023/01/03 04:46:15;;;;;;;37.70;19.13;;;;;;;;;;5054666;28;20059;-63
2023/01/03 04:48:41;;;;;;;42.35;20.08;;;;;;;;;;5054608;28;20036;-64
2023/01/03 04:51:07;;;;;;;37.95;19.95;;;;;;;;;;5055386;28;20040;-63
2023/01/03 04:53:33;;;;;;;38.30;20.23;;;;;;;;;;5062099;28;20445;-63
2023/01/03 04:55:59;;;;;;;35.28;19.38;;;;;;;;;;5056048;28;20103;-63
2023/01/03 04:58:25;;;;;;;39.47;19.48;;;;;;;;;;5054700;28;20597;-63
2023/01/03 05:00:51;;;;;;;37.13;20.17;;;;;;;;;;5060193;28;20555;-63
2023/01/03 05:03:17;;;;;;;40.30;20.58;;;;;;;;;;5062194;28;20037;-62
2023/01/03 05:05:43;;;;;;;34.55;19.60;;;;;;;;;;5049354;28;20860;-63
2023/01/03 05:08:11;;;;;;;37.83;21.00;;;;;;;;;;5067044;28;20075;-63
2023/01/03 05:10:37;;;;;;;34.38;18.63;;;;;;;;;;5064954;28;20697;-63
2023/01/03 05:13:03;;;;;;;36.40;20.58;;;;;;;;;;5051622;28;20494;-63
2023/01/03 05:15:30;;;;;;;36.03;19.92;;;;;;;;;;5058445;28;20091;-64
2023/01/03 05:17:57;;;;;;;34.83;19.05;;;;;;;;;;5066796;28;20037;-64
2023/01/03 05:26:03;;;;;;;37.78;19.55;;;;;;;;;;5034541;28;20037;-63
2023/01/03 05:28:29;;;;;;;36.35;19.65;;;;;;;;;;5066183;28;20036;-63
2023/01/03 05:30:56;;;;;;;39.55;20.67;;;;;;;;;;5057762;28;20395;-63
2023/01/03 05:33:22;;;;;;;38.90;20.05;;;;;;;;;;5063383;28;20040;-63
2023/01/03 05:35:49;;;;;;;45.95;20.55;;;;;;;;;;5061234;28;20047;-63
2023/01/03 05:38:15;;;;;;;37.85;20.00;;;;;;;;;;5067160;28;20048;-63
2023/01/03 05:40:42;;;;;;;37.65;19.95;;;;;;;;;;5069615;28;20044;-63
2023/01/03 05:43:08;;;;;;;39.15;21.33;;;;;;;;;;5066120;28;20039;-64
2023/01/03 05:45:37;;;;;;;36.80;19.88;;;;;;;;;;5064497;28;20098;-63
2023/01/03 05:48:05;;;;;;;36.38;20.38;;;;;;;;;;5061978;28;20132;-63
2023/01/03 05:50:31;;;;;;;34.50;20.42;;;;;;;;;;5061546;28;20052;-63
2023/01/03 05:52:57;;;;;;;38.83;20.73;;;;;;;;;;5056662;28;20461;-63
2023/01/03 05:55:24;;;;;;;37.13;20.85;;;;;;;;;;5061975;28;20079;-64
2023/01/03 05:57:51;;;;;;;37.92;20.98;;;;;;;;;;5068154;28;20406;-63
2023/01/03 06:00:17;;;;;;;36.15;19.65;;;;;;;;;;5065053;28;20522;-63
2023/01/03 06:02:43;;;;;;;36.28;20.08;;;;;;;;;;5062708;28;20036;-63
2023/01/03 06:05:09;;;;;;;34.35;19.65;;;;;;;;;;5061767;28;20105;-63
2023/01/03 06:07:36;;;;;;;34.88;18.60;;;;;;;;;;5069208;28;20466;-63
2023/01/03 06:10:02;;;;;;;35.40;19.77;;;;;;;;;;5073174;28;20032;-63
2023/01/03 06:12:29;;;;;;;36.38;20.40;;;;;;;;;;5067936;28;20094;-63
2023/01/03 06:14:55;;;;;;;31.77;18.15;;;;;;;;;;5068467;28;20048;-63
2023/01/03 06:20:06;;;;;;;35.65;20.40;;;;;;;;;;5068506;28;20047;-63
2023/01/03 06:22:32;;;;;;;32.65;18.92;;;;;;;;;;5064858;28;20495;-64
2023/01/03 06:24:58;;;;;;;33.58;18.55;;;;;;;;;;5056513;28;20112;-64
2023/01/03 06:27:24;;;;;;;37.33;20.67;;;;;;;;;;5063016;28;20488;-64
2023/01/03 06:29:50;;;;;;;35.42;20.02;;;;;;;;;;5069340;28;20036;-64
2023/01/03 06:32:16;;;;;;;33.55;18.27;;;;;;;;;;5066689;28;20278;-64
2023/01/03 06:34:42;;;;;;;38.35;20.50;;;;;;;;;;5071225;28;20055;-64
2023/01/03 06:37:08;;;;;;;39.17;20.90;;;;;;;;;;5070574;28;20067;-64
2023/01/03 06:39:35;;;;;;;39.55;21.70;;;;;;;;;;5070704;28;20093;-64
2023/01/03 06:42:38;;;;;;;41.10;21.17;;;;;;;;;;5064817;28;20036;-64
2023/01/03 06:53:13;;;;;;;64.10;18.77;;;;;;;;;;5071794;28;20047;-63
2023/01/03 06:55:42;;;;;;;79.30;17.10;;;;;;;;;;5060647;28;20037;-63
2023/01/03 06:58:08;;;;;;;73.90;16.15;;;;;;;;;;5061312;28;20471;-64
2023/01/03 07:00:38;;;;;;;91.75;17.67;;;;;;;;;;5067080;28;20049;-64
2023/01/03 07:03:04;;;;;;;80.97;16.73;;;;;;;;;;5065366;28;20044;-64
2023/01/03 07:05:30;;;;;;;100.30;19.33;;;;;;;;;;5070982;28;20036;-64
2023/01/03 07:07:56;;;;;;;67.03;16.73;;;;;;;;;;5069112;28;20074;-64
2023/01/03 07:10:23;;;;;;;66.75;16.70;;;;;;;;;;5069203;28;20108;-64
2023/01/03 07:15:34;;;;;;;64.72;17.10;;;;;;;;;;5063170;28;20086;-64
2023/01/03 07:18:00;;;;;;;92.28;18.90;;;;;;;;;;5067588;28;20036;-64
2023/01/03 07:20:26;;;;;;;56.40;15.05;;;;;;;;;;5070645;28;20086;-63
2023/01/03 07:22:53;;;;;;;62.38;16.58;;;;;;;;;;5060910;28;20033;-64
2023/01/03 07:25:19;;;;;;;58.83;17.25;;;;;;;;;;5067455;28;20098;-64
2023/01/03 07:27:53;;;;;;;70.43;16.90;;;;;;;;;;5065799;28;20040;-64
2023/01/03 07:30:19;;;;;;;47.60;15.82;;;;;;;;;;5062279;28;20450;-63
2023/01/03 07:32:45;;;;;;;73.13;18.80;;;;;;;;;;5062021;28;20123;-64
2023/01/03 07:35:11;;;;;;;57.25;17.58;;;;;;;;;;5070970;28;20042;-64
2023/01/03 07:37:37;;;;;;;143.50;22.65;;;;;;;;;;5060960;28;20033;-63
2023/01/03 07:40:03;;;;;;;82.82;19.70;;;;;;;;;;5066722;28;20032;-64
2023/01/03 07:45:15;;;;;;;86.78;20.25;;;;;;;;;;5057313;28;20110;-64
2023/01/03 07:47:44;;;;;;;63.25;19.15;;;;;;;;;;5057262;28;20098;-64
2023/01/03 07:52:46;;;;;;;114.90;22.88;;;;;;;;;;5059208;28;20044;-68
2023/01/03 07:55:12;;;;;;;76.63;21.77;;;;;;;;;;5071003;28;20472;-68
2023/01/03 07:57:38;;;;;;;132.07;25.67;;;;;;;;;;5067687;28;20036;-67
2023/01/03 08:00:05;;;;;;;70.43;21.45;;;;;;;;;;5063245;28;20040;-68
2023/01/03 08:02:31;;;;;;;58.63;19.92;;;;;;;;;;5067602;28;20215;-68
2023/01/03 08:04:57;;;;;;;108.50;23.95;;;;;;;;;;5071730;28;20123;-68
2023/01/03 08:07:22;;;;;;;75.00;22.45;;;;;;;;;;5066344;28;20029;-67
2023/01/03 08:15:20;;;;;;;107.07;26.55;;;;;;;;;;5047961;28;20048;-68
2023/01/03 08:17:46;;;;;;;94.95;24.80;;;;;;;;;;5067852;28;20052;-68
2023/01/03 08:20:12;;;;;;;90.72;25.90;;;;;;;;;;5066821;28;20044;-68
2023/01/03 08:22:37;;;;;;;75.18;25.08;;;;;;;;;;5068625;28;20234;-68
2023/01/03 08:25:04;;;;;;;82.45;26.50;;;;;;;;;;5068184;28;20036;-68
2023/01/03 08:27:30;;;;;;;89.28;27.70;;;;;;;;;;5071017;28;20062;-68
2023/01/03 08:29:56;;;;;;;79.93;28.27;;;;;;;;;;5064098;28;20032;-68
2023/01/03 08:32:22;;;;;;;72.22;27.25;;;;;;;;;;5064257;28;20422;-68
2023/01/03 08:34:48;;;;;;;67.28;26.58;;;;;;;;;;5066301;28;20071;-68
2023/01/03 08:37:15;;;;;;;74.93;28.48;;;;;;;;;;5057299;28;20080;-67
2023/01/03 08:39:44;;;;;;;75.47;28.27;;;;;;;;;;5068100;28;20264;-67
2023/01/03 08:42:13;;;;;;;79.68;28.58;;;;;;;;;;5064763;28;20037;-68
2023/01/03 08:44:39;;;;;;;85.50;28.40;;;;;;;;;;5064176;28;20036;-67
2023/01/03 08:47:06;;;;;;;74.03;26.33;;;;;;;;;;5065853;28;20040;-68
2023/01/03 08:49:32;;;;;;;78.65;28.33;;;;;;;;;;5067474;28;20091;-68
2023/01/03 08:51:58;;;;;;;69.60;26.65;;;;;;;;;;5059178;28;20588;-67
2023/01/03 08:54:24;;;;;;;69.82;26.00;;;;;;;;;;5068834;28;20506;-68
2023/01/03 08:56:50;;;;;;;72.82;26.50;;;;;;;;;;5067327;28;20092;-68
2023/01/03 08:59:16;;;;;;;70.35;25.85;;;;;;;;;;5059146;28;20075;-68
2023/01/03 09:01:41;;;;;;;71.72;26.98;;;;;;;;;;5065617;28;20044;-68
2023/01/03 09:04:07;;;;;;;71.72;26.73;;;;;;;;;;5067339;28;20539;-68
2023/01/03 09:06:33;;;;;;;71.45;26.88;;;;;;;;;;5066993;28;20040;-67
2023/01/03 09:09:03;;;;;;;79.88;29.40;;;;;;;;;;5069935;28;20071;-68
2023/01/03 09:11:29;;;;;;;76.00;30.05;;;;;;;;;;5065138;28;20037;-68
2023/01/03 09:13:55;;;;;;;72.80;28.65;;;;;;;;;;5071062;28;20036;-68
2023/01/03 09:16:21;;;;;;;67.90;26.08;;;;;;;;;;5074755;28;20048;-68
2023/01/03 09:18:47;;;;;;;72.05;28.40;;;;;;;;;;5071198;28;20046;-68
2023/01/03 09:21:13;;;;;;;69.15;29.27;;;;;;;;;;5068344;28;20489;-68
2023/01/03 09:23:39;;;;;;;74.78;28.90;;;;;;;;;;5073791;28;20038;-68
2023/01/03 09:26:06;;;;;;;76.57;31.17;;;;;;;;;;5073604;28;20028;-68
2023/01/03 09:28:32;;;;;;;76.70;31.50;;;;;;;;;;5072883;28;20052;-68
2023/01/03 09:30:58;;;;;;;77.22;29.13;;;;;;;;;;5071326;28;20469;-68
2023/01/03 09:33:24;;;;;;;71.90;29.38;;;;;;;;;;5062655;28;20079;-67
2023/01/03 09:35:53;;;;;;;85.53;33.15;;;;;;;;;;5050838;28;20072;-68
2023/01/03 09:38:19;;;;;;;79.63;32.50;;;;;;;;;;5073811;28;20043;-68
2023/01/03 09:40:46;;;;;;;79.47;31.10;;;;;;;;;;5074100;28;20123;-67
2023/01/03 09:43:17;;;;;;;63.63;26.98;;;;;;;;;;5070673;28;20071;-67
2023/01/03 09:45:45;;;;;;;81.87;30.70;;;;;;;;;;5065517;28;20036;-67
2023/01/03 09:48:16;;;;;;;78.05;30.27;;;;;;;;;;5062125;28;20045;-68
2023/01/03 09:50:43;;;;;;;80.50;29.70;;;;;;;;;;5073517;28;20045;-67
2023/01/03 10:04:23;;;;;;;77.10;28.30;;;;;;;;;;5074025;28;20071;-67
2023/01/03 10:07:05;;;;;;;74.07;27.77;;;;;;;;;;5074191;28;20037;-67
2023/01/03 10:09:34;;;;;;;67.68;27.98;;;;;;;;;;5073902;28;20079;-67
2023/01/03 10:12:00;;;;;;;87.03;31.92;;;;;;;;;;5073372;28;20111;-67
2023/01/03 10:14:38;;;;;;;82.00;31.10;;;;;;;;;;5072107;28;20128;-67
2023/01/03 10:17:10;;;;;;;81.10;31.42;;;;;;;;;;5061524;28;20040;-67
2023/01/03 10:19:59;;;;;;;84.25;30.48;;;;;;;;;;5067000;28;20442;-67
2023/01/03 10:22:27;;;;;;;86.47;31.58;;;;;;;;;;5063292;28;20482;-67
2023/01/03 10:24:54;;;;;;;79.10;30.85;;;;;;;;;;5065153;28;20138;-67
2023/01/03 10:27:21;;;;;;;67.43;27.27;;;;;;;;;;5064457;28;20070;-67
2023/01/03 10:29:53;;;;;;;78.88;30.15;;;;;;;;;;5073870;28;20046;-67
2023/01/03 10:32:19;;;;;;;83.93;29.98;;;;;;;;;;5063131;28;20041;-67
2023/01/03 10:35:00;;;;;;;79.65;30.75;;;;;;;;;;5062320;28;20667;-68
2023/01/03 10:37:26;;;;;;;74.95;30.48;;;;;;;;;;5070465;28;20036;-68
2023/01/03 10:40:03;;;;;;;75.10;29.95;;;;;;;;;;5066253;28;20120;-67
2023/01/03 10:42:30;;;;;;;72.32;28.83;;;;;;;;;;5065648;28;20070;-67
2023/01/03 10:45:00;;;;;;;69.20;29.55;;;;;;;;;;5067590;28;20525;-67
2023/01/03 10:47:26;;;;;;;71.90;29.90;;;;;;;;;;5073013;28;20371;-68
2023/01/03 10:50:03;;;;;;;64.70;28.38;;;;;;;;;;5073421;28;20043;-68
2023/01/03 10:52:39;;;;;;;60.10;25.23;;;;;;;;;;5070689;28;20528;-68
2023/01/03 10:55:15;;;;;;;62.65;26.55;;;;;;;;;;5050612;28;20052;-68
2023/01/03 10:57:47;;;;;;;61.03;27.10;;;;;;;;;;5072821;28;20094;-68
2023/01/03 11:00:28;;;;;;;74.32;29.67;;;;;;;;;;5072856;28;20044;-68
2023/01/03 11:02:55;;;;;;;71.13;28.45;;;;;;;;;;5070926;28;20127;-68
2023/01/03 11:05:23;;;;;;;65.20;27.35;;;;;;;;;;5059398;28;20087;-68
2023/01/03 11:07:56;;;;;;;68.88;28.85;;;;;;;;;;5072757;28;20116;-68
2023/01/03 11:10:23;;;;;;;61.70;26.70;;;;;;;;;;5071171;28;20048;-68
2023/01/03 11:12:49;;;;;;;67.47;29.67;;;;;;;;;;5073079;28;20036;-68
2023/01/03 11:15:30;;;;;;;70.18;28.13;;;;;;;;;;5072651;28;20044;-68
2023/01/03 11:17:58;;;;;;;69.50;29.17;;;;;;;;;;5067205;28;20097;-68
2023/01/03 11:20:35;;;;;;;55.13;24.88;;;;;;;;;;5058978;28;20041;-68
2023/01/03 11:23:03;;;;;;;54.85;25.20;;;;;;;;;;5067252;28;20036;-68
2023/01/03 11:25:32;;;;;;;53.25;24.40;;;;;;;;;;5070880;28;20047;-68
2023/01/03 11:28:05;;;;;;;56.47;25.10;;;;;;;;;;5069948;28;20043;-69
2023/01/03 11:30:40;;;;;;;56.15;24.38;;;;;;;;;;5070859;28;20037;-69
2023/01/03 11:33:10;;;;;;;54.28;23.35;;;;;;;;;;5063540;28;20097;-68
2023/01/03 11:35:52;;;;;;;50.97;22.70;;;;;;;;;;5053915;28;20044;-68
2023/01/03 11:38:24;;;;;;;48.88;23.58;;;;;;;;;;5062022;28;20044;-68
2023/01/03 11:41:08;;;;;;;50.88;22.83;;;;;;;;;;5060226;28;20037;-68
2023/01/03 11:43:58;;;;;;;46.10;22.75;;;;;;;;;;5068167;28;20036;-67
2023/01/03 11:46:27;;;;;;;42.75;18.23;;;;;;;;;;5057441;28;20087;-68
2023/01/03 11:49:08;;;;;;;43.72;20.80;;;;;;;;;;5071053;28;20036;-68
2023/01/03 11:51:34;;;;;;;40.30;20.35;;;;;;;;;;5060615;28;20418;-68
2023/01/03 11:54:15;;;;;;;36.67;18.05;;;;;;;;;;5054457;28;20056;-68
2023/01/03 11:56:45;;;;;;;37.97;18.33;;;;;;;;;;5056519;28;20517;-68
2023/01/03 11:59:14;;;;;;;41.58;19.98;;;;;;;;;;5062671;28;20093;-67
2023/01/03 12:01:41;;;;;;;39.22;18.63;;;;;;;;;;5058360;28;20502;-68
2023/01/03 12:04:26;;;;;;;36.13;18.35;;;;;;;;;;5062684;28;21367;-69
2023/01/03 12:07:10;;;;;;;34.83;17.10;;;;;;;;;;5065109;28;20045;-67
2023/01/03 12:09:43;;;;;;;34.20;16.35;;;;;;;;;;5057421;28;20610;-68
2023/01/03 12:12:28;;;;;;;33.90;17.63;;;;;;;;;;5064051;28;20044;-67
2023/01/03 12:14:58;;;;;;;36.70;16.73;;;;;;;;;;5069816;28;20123;-68
2023/01/03 12:17:29;;;;;;;37.40;17.58;;;;;;;;;;5071978;28;20040;-68
2023/01/03 12:20:00;;;;;;;37.47;18.00;;;;;;;;;;5061666;28;20069;-68
2023/01/03 12:22:36;;;;;;;34.80;16.85;;;;;;;;;;5056895;28;20072;-67
2023/01/03 12:25:08;;;;;;;32.80;16.73;;;;;;;;;;5063261;28;20114;-67
2023/01/03 12:27:50;;;;;;;37.38;17.38;;;;;;;;;;5069646;28;20067;-67
2023/01/03 12:30:55;;;;;;;34.45;16.55;;;;;;;;;;5065227;28;20036;-67
2023/01/03 12:33:29;;;;;;;31.73;15.10;;;;;;;;;;4992023;28;20560;-68
2023/01/03 12:36:16;;;;;;;31.10;15.93;;;;;;;;;;4985700;28;20126;-67
2023/01/03 12:38:44;;;;;;;29.98;14.77;;;;;;;;;;5033581;28;20122;-67
2023/01/03 12:41:20;;;;;;;30.33;14.63;;;;;;;;;;5071208;28;20076;-67
2023/01/03 12:43:58;;;;;;;32.35;14.63;;;;;;;;;;5061300;28;20555;-67
2023/01/03 12:46:28;;;;;;;35.72;14.75;;;;;;;;;;5060866;28;20043;-67
2023/01/03 12:49:14;;;;;;;35.65;16.23;;;;;;;;;;5062857;28;20040;-67
2023/01/03 12:51:40;;;;;;;30.85;15.18;;;;;;;;;;5052146;28;20058;-67
2023/01/03 12:54:21;;;;;;;30.38;14.60;;;;;;;;;;5068796;28;20036;-67
2023/01/03 12:56:50;;;;;;;35.75;15.68;;;;;;;;;;5064589;28;20037;-67
2023/01/03 12:59:26;;;;;;;39.53;16.70;;;;;;;;;;5067330;28;20048;-67
2023/01/03 13:01:57;;;;;;;37.42;16.48;;;;;;;;;;5064337;28;20105;-67
2023/01/03 13:04:38;;;;;;;30.75;13.38;;;;;;;;;;5065691;28;20452;-67
2023/01/03 13:07:13;;;;;;;36.60;16.05;;;;;;;;;;5067905;28;20040;-67
2023/01/03 13:09:41;;;;;;;37.90;16.90;;;;;;;;;;5069137;28;20129;-67
2023/01/03 13:12:12;;;;;;;33.13;15.68;;;;;;;;;;5068928;28;20047;-68
2023/01/03 13:14:53;;;;;;;29.90;14.52;;;;;;;;;;5059464;28;20068;-67
2023/01/03 13:17:20;;;;;;;32.38;16.70;;;;;;;;;;5066252;28;20052;-67
2023/01/03 13:19:53;;;;;;;34.40;15.63;;;;;;;;;;5065378;28;20133;-67
2023/01/03 13:22:40;;;;;;;34.70;15.55;;;;;;;;;;5058628;28;20037;-67
2023/01/03 13:25:27;;;;;;;35.38;16.55;;;;;;;;;;5035192;28;20183;-67
2023/01/03 13:27:55;;;;;;;31.65;13.95;;;;;;;;;;5064553;28;20090;-67
2023/01/03 13:30:23;;;;;;;30.73;13.65;;;;;;;;;;5065668;28;20063;-67
2023/01/03 13:33:03;;;;;;;32.35;14.25;;;;;;;;;;5067105;28;20043;-67
2023/01/03 13:35:31;;;;;;;35.27;15.10;;;;;;;;;;5060022;28;20048;-67
2023/01/03 13:38:00;;;;;;;27.75;14.45;;;;;;;;;;5063139;28;20422;-67
2023/01/03 13:40:28;;;;;;;32.08;14.98;;;;;;;;;;5066799;28;20040;-68
2023/01/03 13:43:21;;;;;;;32.55;14.73;;;;;;;;;;5064279;28;20094;-67
2023/01/03 13:45:51;;;;;;;31.63;12.73;;;;;;;;;;5058598;28;20134;-67
2023/01/03 13:48:17;;;;;;;23.67;13.33;;;;;;;;;;5063489;28;20036;-67
2023/01/03 13:53:19;;;;;;;26.90;13.20;;;;;;;;;;5025159;28;20056;-63
2023/01/03 13:55:48;;;;;;;27.45;13.77;;;;;;;;;;5024744;28;20056;-63
2023/01/03 13:58:26;;;;;;;30.63;14.05;;;;;;;;;;5015154;28;20509;-63
2023/01/03 14:00:55;;;;;;;28.73;14.00;;;;;;;;;;5024356;28;20376;-63
2023/01/03 14:03:21;;;;;;;25.17;12.32;;;;;;;;;;5024941;28;20073;-63
2023/01/03 14:06:02;;;;;;;25.08;13.23;;;;;;;;;;5030287;28;20094;-64
2023/01/03 14:08:41;;;;;;;26.02;12.85;;;;;;;;;;5024775;28;20123;-63
2023/01/03 14:11:07;;;;;;;30.30;14.48;;;;;;;;;;5019673;28;20050;-63
2023/01/03 14:13:47;;;;;;;23.08;13.05;;;;;;;;;;5018218;28;20273;-64
2023/01/03 14:16:16;;;;;;;24.57;11.57;;;;;;;;;;5028056;28;20053;-64
2023/01/03 14:18:47;;;;;;;26.20;12.77;;;;;;;;;;5023471;28;20048;-63
2023/01/03 14:21:19;;;;;;;25.60;12.95;;;;;;;;;;5024899;28;20045;-63
2023/01/03 14:23:45;;;;;;;32.10;15.27;;;;;;;;;;5030143;28;20406;-63
2023/01/03 14:26:14;;;;;;;26.77;12.13;;;;;;;;;;5025523;28;20048;-64
2023/01/03 14:28:40;;;;;;;23.38;12.93;;;;;;;;;;5028506;28;20529;-63
2023/01/03 14:31:13;;;;;;;23.70;14.00;;;;;;;;;;5029240;28;20129;-63
2023/01/03 14:33:42;;;;;;;24.35;11.43;;;;;;;;;;5029144;28;20120;-63
2023/01/03 14:36:15;;;;;;;22.75;11.82;;;;;;;;;;5020977;28;20530;-63
2023/01/03 14:38:48;;;;;;;20.80;10.65;;;;;;;;;;5023371;28;20080;-63
2023/01/03 14:41:27;;;;;;;21.75;11.68;;;;;;;;;;5023132;28;20404;-64
2023/01/03 14:44:00;;;;;;;24.17;12.65;;;;;;;;;;5021939;28;20084;-64
2023/01/03 14:46:26;;;;;;;21.63;11.25;;;;;;;;;;5008539;28;20084;-64
2023/01/03 14:48:52;;;;;;;24.85;12.20;;;;;;;;;;5027892;28;20096;-64
2023/01/03 14:51:18;;;;;;;20.65;11.38;;;;;;;;;;5017314;28;20466;-64
2023/01/03 14:53:45;;;;;;;20.30;10.45;;;;;;;;;;5018400;28;20122;-63
2023/01/03 14:56:12;;;;;;;24.00;14.32;;;;;;;;;;5029879;28;20072;-64
2023/01/03 14:58:40;;;;;;;23.45;12.05;;;;;;;;;;5030311;28;20585;-64
2023/01/03 15:01:07;;;;;;;21.80;10.60;;;;;;;;;;5015196;28;20121;-64
2023/01/03 15:03:35;;;;;;;21.60;11.35;;;;;;;;;;5027203;28;20075;-64
2023/01/03 15:06:14;;;;;;;24.45;10.38;;;;;;;;;;5019621;28;20038;-64
2023/01/03 15:08:42;;;;;;;18.98;10.05;;;;;;;;;;5019986;28;20045;-64
2023/01/03 15:11:09;;;;;;;25.33;11.63;;;;;;;;;;4997806;28;20049;-64
2023/01/03 15:13:47;;;;;;;21.27;12.52;;;;;;;;;;5028216;28;20509;-64
2023/01/03 15:16:24;;;;;;;20.40;9.90;;;;;;;;;;5025649;28;20065;-64
2023/01/03 15:18:50;;;;;;;17.13;9.63;;;;;;;;;;5017555;28;20514;-63
2023/01/03 15:21:17;;;;;;;17.00;9.70;;;;;;;;;;5024255;28;20060;-64
2023/01/03 15:23:47;;;;;;;16.58;9.30;;;;;;;;;;5022877;28;20087;-64
2023/01/03 15:26:21;;;;;;;17.52;8.75;;;;;;;;;;5026571;28;20415;-63
2023/01/03 15:28:50;;;;;;;20.98;10.98;;;;;;;;;;5028116;28;20402;-64
2023/01/03 15:31:22;;;;;;;16.58;10.70;;;;;;;;;;5024248;28;20049;-64
2023/01/03 15:33:58;;;;;;;16.88;9.82;;;;;;;;;;5028369;28;20041;-64
2023/01/03 15:36:26;;;;;;;14.45;8.65;;;;;;;;;;5023358;28;20160;-64